sensor_id;sensor_type;location;lat;lon;timestamp;P1;durP1;ratioP1;P2;durP2;ratioP2
5171;SDS011;2605;49.770;9.868;2023-05-10T00:01:20;2.80;;;2.60;;
5171;SDS011;2605;49.770;9.868;2023-05-10T00:03:46;2.33;;;2.23;;
5171;SDS011;2605;49.770;9.868;2023-05-10T00:06:11;2.77;;;2.50;;
5171;SDS011;2605;49.770;9.868;2023-05-10T00:08:37;2.97;;;2.50;;
5171;SDS011;2605;49.770;9.868;2023-05-10T00:11:02;2.77;;;2.57;;
5171;SDS011;2605;49.770;9.868;2023-05-10T00:13:28;3.17;;;2.90;;
5171;SDS011;2605;49.770;9.868;2023-05-10T00:15:53;2.70;;;2.60;;
5171;SDS011;2605;49.770;9.868;2023-05-10T00:18:19;2.33;;;2.23;;
5171;SDS011;2605;49.770;9.868;2023-05-10T00:20:44;3.77;;;2.67;;
5171;SDS011;2605;49.770;9.868;2023-05-10T00:23:11;2.97;;;2.77;;
5171;SDS011;2605;49.770;9.868;2023-05-10T00:25:36;4.87;;;2.93;;
5171;SDS011;2605;49.770;9.868;2023-05-10T00:28:02;2.50;;;2.40;;
5171;SDS011;2605;49.770;9.868;2023-05-10T00:30:30;3.27;;;3.07;;
5171;SDS011;2605;49.770;9.868;2023-05-10T00:32:56;3.50;;;3.20;;
5171;SDS011;2605;49.770;9.868;2023-05-10T00:35:21;3.00;;;2.80;;
5171;SDS011;2605;49.770;9.868;2023-05-10T00:37:47;3.03;;;2.50;;
5171;SDS011;2605;49.770;9.868;2023-05-10T00:40:12;3.10;;;2.90;;
5171;SDS011;2605;49.770;9.868;2023-05-10T00:42:38;2.80;;;2.70;;
5171;SDS011;2605;49.770;9.868;2023-05-10T00:45:04;6.00;;;3.27;;
5171;SDS011;2605;49.770;9.868;2023-05-10T00:47:30;3.53;;;3.20;;
5171;SDS011;2605;49.770;9.868;2023-05-10T00:49:56;2.93;;;2.73;;
5171;SDS011;2605;49.770;9.868;2023-05-10T00:52:22;2.60;;;2.50;;
5171;SDS011;2605;49.770;9.868;2023-05-10T00:54:49;3.23;;;3.03;;
5171;SDS011;2605;49.770;9.868;2023-05-10T00:57:16;2.90;;;2.70;;
5171;SDS011;2605;49.770;9.868;2023-05-10T00:59:42;3.00;;;2.80;;
5171;SDS011;2605;49.770;9.868;2023-05-10T01:02:07;2.77;;;2.57;;
5171;SDS011;2605;49.770;9.868;2023-05-10T01:04:33;3.23;;;3.00;;
5171;SDS011;2605;49.770;9.868;2023-05-10T01:07:00;2.40;;;2.30;;
5171;SDS011;2605;49.770;9.868;2023-05-10T01:09:25;2.83;;;2.60;;
5171;SDS011;2605;49.770;9.868;2023-05-10T01:11:51;2.50;;;2.30;;
5171;SDS011;2605;49.770;9.868;2023-05-10T01:14:18;2.30;;;2.20;;
5171;SDS011;2605;49.770;9.868;2023-05-10T01:16:44;1.13;;;1.13;;
5171;SDS011;2605;49.770;9.868;2023-05-10T01:19:30;1.70;;;1.60;;
5171;SDS011;2605;49.770;9.868;2023-05-10T01:21:59;2.40;;;2.20;;
5171;SDS011;2605;49.770;9.868;2023-05-10T01:27:32;2.13;;;2.03;;
5171;SDS011;2605;49.770;9.868;2023-05-10T01:30:29;3.53;;;2.60;;
5171;SDS011;2605;49.770;9.868;2023-05-10T01:33:30;2.93;;;2.63;;
5171;SDS011;2605;49.770;9.868;2023-05-10T01:36:28;2.50;;;2.40;;
5171;SDS011;2605;49.770;9.868;2023-05-10T01:42:23;2.53;;;2.33;;
5171;SDS011;2605;49.770;9.868;2023-05-10T01:44:58;2.00;;;1.90;;
5171;SDS011;2605;49.770;9.868;2023-05-10T01:47:30;1.97;;;1.83;;
5171;SDS011;2605;49.770;9.868;2023-05-10T01:50:03;2.00;;;1.90;;
5171;SDS011;2605;49.770;9.868;2023-05-10T01:52:36;1.83;;;1.73;;
5171;SDS011;2605;49.770;9.868;2023-05-10T01:55:06;4.03;;;2.10;;
5171;SDS011;2605;49.770;9.868;2023-05-10T01:57:36;4.30;;;1.33;;
5171;SDS011;2605;49.770;9.868;2023-05-10T02:00:07;1.20;;;1.10;;
5171;SDS011;2605;49.770;9.868;2023-05-10T02:02:35;1.57;;;1.47;;
5171;SDS011;2605;49.770;9.868;2023-05-10T02:05:03;1.30;;;1.20;;
5171;SDS011;2605;49.770;9.868;2023-05-10T02:07:31;1.10;;;1.10;;
5171;SDS011;2605;49.770;9.868;2023-05-10T02:10:00;2.40;;;1.17;;
5171;SDS011;2605;49.770;9.868;2023-05-10T02:12:28;1.20;;;1.20;;
5171;SDS011;2605;49.770;9.868;2023-05-10T02:14:56;0.97;;;0.97;;
5171;SDS011;2605;49.770;9.868;2023-05-10T02:17:24;1.00;;;1.00;;
5171;SDS011;2605;49.770;9.868;2023-05-10T02:19:50;0.90;;;0.90;;
5171;SDS011;2605;49.770;9.868;2023-05-10T02:22:18;0.93;;;0.93;;
5171;SDS011;2605;49.770;9.868;2023-05-10T02:24:44;1.40;;;1.30;;
5171;SDS011;2605;49.770;9.868;2023-05-10T02:27:11;6.60;;;1.23;;
5171;SDS011;2605;49.770;9.868;2023-05-10T02:29:39;1.40;;;1.10;;
5171;SDS011;2605;49.770;9.868;2023-05-10T02:32:05;1.70;;;1.60;;
5171;SDS011;2605;49.770;9.868;2023-05-10T02:34:31;1.00;;;1.00;;
5171;SDS011;2605;49.770;9.868;2023-05-10T02:37:00;1.20;;;1.20;;
5171;SDS011;2605;49.770;9.868;2023-05-10T02:39:27;1.40;;;1.30;;
5171;SDS011;2605;49.770;9.868;2023-05-10T02:41:54;1.73;;;1.10;;
5171;SDS011;2605;49.770;9.868;2023-05-10T02:44:21;1.20;;;1.20;;
5171;SDS011;2605;49.770;9.868;2023-05-10T02:46:48;2.70;;;0.80;;
5171;SDS011;2605;49.770;9.868;2023-05-10T02:49:14;1.00;;;1.00;;
5171;SDS011;2605;49.770;9.868;2023-05-10T02:51:55;1.10;;;1.10;;
5171;SDS011;2605;49.770;9.868;2023-05-10T02:54:26;1.20;;;1.20;;
5171;SDS011;2605;49.770;9.868;2023-05-10T02:56:56;1.00;;;1.00;;
5171;SDS011;2605;49.770;9.868;2023-05-10T02:59:22;1.43;;;1.00;;
5171;SDS011;2605;49.770;9.868;2023-05-10T03:01:48;1.43;;;1.37;;
5171;SDS011;2605;49.770;9.868;2023-05-10T03:04:13;1.20;;;1.20;;
5171;SDS011;2605;49.770;9.868;2023-05-10T03:06:40;1.20;;;1.20;;
5171;SDS011;2605;49.770;9.868;2023-05-10T03:09:05;0.77;;;0.77;;
5171;SDS011;2605;49.770;9.868;2023-05-10T03:11:47;1.10;;;1.10;;
5171;SDS011;2605;49.770;9.868;2023-05-10T03:20:03;1.50;;;1.40;;
5171;SDS011;2605;49.770;9.868;2023-05-10T03:22:36;1.30;;;1.20;;
5171;SDS011;2605;49.770;9.868;2023-05-10T03:25:06;1.03;;;1.03;;
5171;SDS011;2605;49.770;9.868;2023-05-10T03:27:35;1.90;;;1.80;;
5171;SDS011;2605;49.770;9.868;2023-05-10T03:30:03;1.37;;;1.27;;
5171;SDS011;2605;49.770;9.868;2023-05-10T03:32:32;1.40;;;1.30;;
5171;SDS011;2605;49.770;9.868;2023-05-10T03:34:59;3.63;;;1.70;;
5171;SDS011;2605;49.770;9.868;2023-05-10T03:37:25;1.60;;;1.50;;
5171;SDS011;2605;49.770;9.868;2023-05-10T03:39:50;1.60;;;1.50;;
5171;SDS011;2605;49.770;9.868;2023-05-10T03:42:15;1.67;;;1.57;;
5171;SDS011;2605;49.770;9.868;2023-05-10T03:44:42;1.00;;;1.00;;
5171;SDS011;2605;49.770;9.868;2023-05-10T03:47:08;1.77;;;1.67;;
5171;SDS011;2605;49.770;9.868;2023-05-10T03:49:33;1.43;;;1.37;;
5171;SDS011;2605;49.770;9.868;2023-05-10T03:51:59;1.53;;;1.47;;
5171;SDS011;2605;49.770;9.868;2023-05-10T03:54:24;1.70;;;1.60;;
5171;SDS011;2605;49.770;9.868;2023-05-10T03:56:51;1.70;;;1.57;;
5171;SDS011;2605;49.770;9.868;2023-05-10T03:59:16;1.33;;;1.23;;
5171;SDS011;2605;49.770;9.868;2023-05-10T04:01:41;2.37;;;1.30;;
5171;SDS011;2605;49.770;9.868;2023-05-10T04:04:07;1.50;;;1.40;;
5171;SDS011;2605;49.770;9.868;2023-05-10T04:06:32;1.63;;;1.53;;
5171;SDS011;2605;49.770;9.868;2023-05-10T04:08:58;1.60;;;1.50;;
5171;SDS011;2605;49.770;9.868;2023-05-10T04:11:25;1.70;;;1.60;;
5171;SDS011;2605;49.770;9.868;2023-05-10T04:13:50;1.30;;;1.27;;
5171;SDS011;2605;49.770;9.868;2023-05-10T04:16:16;1.80;;;1.70;;
5171;SDS011;2605;49.770;9.868;2023-05-10T04:18:42;1.20;;;1.20;;
5171;SDS011;2605;49.770;9.868;2023-05-10T04:21:11;1.77;;;1.67;;
5171;SDS011;2605;49.770;9.868;2023-05-10T04:23:37;1.80;;;1.70;;
5171;SDS011;2605;49.770;9.868;2023-05-10T04:26:02;1.70;;;1.60;;
5171;SDS011;2605;49.770;9.868;2023-05-10T04:28:28;1.63;;;1.53;;
5171;SDS011;2605;49.770;9.868;2023-05-10T04:31:00;1.20;;;1.20;;
5171;SDS011;2605;49.770;9.868;2023-05-10T04:33:29;2.10;;;2.00;;
5171;SDS011;2605;49.770;9.868;2023-05-10T04:35:58;1.67;;;1.57;;
5171;SDS011;2605;49.770;9.868;2023-05-10T04:38:23;1.60;;;1.50;;
5171;SDS011;2605;49.770;9.868;2023-05-10T04:40:52;2.10;;;2.00;;
5171;SDS011;2605;49.770;9.868;2023-05-10T04:43:18;4.57;;;1.80;;
5171;SDS011;2605;49.770;9.868;2023-05-10T04:45:44;2.40;;;1.50;;
5171;SDS011;2605;49.770;9.868;2023-05-10T04:48:09;2.40;;;1.50;;
5171;SDS011;2605;49.770;9.868;2023-05-10T04:50:36;2.30;;;2.20;;
5171;SDS011;2605;49.770;9.868;2023-05-10T04:53:01;1.80;;;1.70;;
5171;SDS011;2605;49.770;9.868;2023-05-10T04:55:27;4.23;;;1.70;;
5171;SDS011;2605;49.770;9.868;2023-05-10T04:57:52;1.63;;;1.53;;
5171;SDS011;2605;49.770;9.868;2023-05-10T05:00:20;1.93;;;1.83;;
5171;SDS011;2605;49.770;9.868;2023-05-10T05:02:45;1.53;;;1.37;;
5171;SDS011;2605;49.770;9.868;2023-05-10T05:05:11;1.80;;;1.70;;
5171;SDS011;2605;49.770;9.868;2023-05-10T05:07:37;1.57;;;1.33;;
5171;SDS011;2605;49.770;9.868;2023-05-10T05:10:06;2.13;;;2.03;;
5171;SDS011;2605;49.770;9.868;2023-05-10T05:12:33;4.50;;;1.73;;
5171;SDS011;2605;49.770;9.868;2023-05-10T05:14:59;1.80;;;1.70;;
5171;SDS011;2605;49.770;9.868;2023-05-10T05:17:27;2.50;;;1.70;;
5171;SDS011;2605;49.770;9.868;2023-05-10T05:19:55;1.70;;;1.60;;
5171;SDS011;2605;49.770;9.868;2023-05-10T05:22:20;2.20;;;2.10;;
5171;SDS011;2605;49.770;9.868;2023-05-10T05:24:52;5.40;;;2.03;;
5171;SDS011;2605;49.770;9.868;2023-05-10T05:27:18;1.70;;;1.60;;
5171;SDS011;2605;49.770;9.868;2023-05-10T05:29:45;1.93;;;1.83;;
5171;SDS011;2605;49.770;9.868;2023-05-10T05:32:11;1.83;;;1.70;;
5171;SDS011;2605;49.770;9.868;2023-05-10T05:34:36;1.73;;;1.63;;
5171;SDS011;2605;49.770;9.868;2023-05-10T05:37:02;1.90;;;1.80;;
5171;SDS011;2605;49.770;9.868;2023-05-10T05:39:27;3.37;;;1.63;;
5171;SDS011;2605;49.770;9.868;2023-05-10T05:41:53;1.80;;;1.70;;
5171;SDS011;2605;49.770;9.868;2023-05-10T05:44:18;1.83;;;1.40;;
5171;SDS011;2605;49.770;9.868;2023-05-10T05:46:47;2.47;;;2.30;;
5171;SDS011;2605;49.770;9.868;2023-05-10T05:49:12;2.10;;;2.00;;
5171;SDS011;2605;49.770;9.868;2023-05-10T05:51:38;2.93;;;1.70;;
5171;SDS011;2605;49.770;9.868;2023-05-10T05:54:03;2.73;;;2.07;;
5171;SDS011;2605;49.770;9.868;2023-05-10T05:56:29;3.53;;;1.53;;
5171;SDS011;2605;49.770;9.868;2023-05-10T05:58:55;2.63;;;1.67;;
5171;SDS011;2605;49.770;9.868;2023-05-10T06:01:20;1.70;;;1.60;;
5171;SDS011;2605;49.770;9.868;2023-05-10T06:03:46;2.50;;;1.90;;
5171;SDS011;2605;49.770;9.868;2023-05-10T06:06:11;2.07;;;1.97;;
5171;SDS011;2605;49.770;9.868;2023-05-10T06:08:37;1.90;;;1.80;;
5171;SDS011;2605;49.770;9.868;2023-05-10T06:11:02;3.03;;;2.40;;
5171;SDS011;2605;49.770;9.868;2023-05-10T06:13:29;2.40;;;2.20;;
5171;SDS011;2605;49.770;9.868;2023-05-10T06:15:57;2.00;;;1.90;;
5171;SDS011;2605;49.770;9.868;2023-05-10T06:18:23;1.80;;;1.70;;
5171;SDS011;2605;49.770;9.868;2023-05-10T06:20:49;1.90;;;1.80;;
5171;SDS011;2605;49.770;9.868;2023-05-10T06:23:15;2.80;;;1.90;;
5171;SDS011;2605;49.770;9.868;2023-05-10T06:25:41;1.70;;;1.60;;
5171;SDS011;2605;49.770;9.868;2023-05-10T06:28:06;1.53;;;1.43;;
5171;SDS011;2605;49.770;9.868;2023-05-10T06:30:32;1.80;;;1.70;;
5171;SDS011;2605;49.770;9.868;2023-05-10T06:32:57;1.70;;;1.60;;
5171;SDS011;2605;49.770;9.868;2023-05-10T06:35:23;1.80;;;1.70;;
5171;SDS011;2605;49.770;9.868;2023-05-10T06:37:49;1.30;;;1.20;;
5171;SDS011;2605;49.770;9.868;2023-05-10T06:40:15;1.90;;;1.30;;
5171;SDS011;2605;49.770;9.868;2023-05-10T06:42:41;2.33;;;1.60;;
5171;SDS011;2605;49.770;9.868;2023-05-10T06:45:06;2.00;;;1.90;;
5171;SDS011;2605;49.770;9.868;2023-05-10T06:47:33;2.03;;;1.93;;
5171;SDS011;2605;49.770;9.868;2023-05-10T06:49:58;1.70;;;1.60;;
5171;SDS011;2605;49.770;9.868;2023-05-10T06:52:24;1.70;;;1.60;;
5171;SDS011;2605;49.770;9.868;2023-05-10T06:54:50;2.23;;;2.03;;
5171;SDS011;2605;49.770;9.868;2023-05-10T06:57:15;2.30;;;2.10;;
5171;SDS011;2605;49.770;9.868;2023-05-10T06:59:41;1.63;;;1.53;;
5171;SDS011;2605;49.770;9.868;2023-05-10T07:02:06;3.47;;;2.37;;
5171;SDS011;2605;49.770;9.868;2023-05-10T07:04:32;2.30;;;1.30;;
5171;SDS011;2605;49.770;9.868;2023-05-10T07:06:57;3.57;;;1.60;;
5171;SDS011;2605;49.770;9.868;2023-05-10T07:09:23;2.00;;;1.90;;
5171;SDS011;2605;49.770;9.868;2023-05-10T07:11:49;2.23;;;2.07;;
5171;SDS011;2605;49.770;9.868;2023-05-10T07:14:14;3.00;;;1.97;;
5171;SDS011;2605;49.770;9.868;2023-05-10T07:16:40;3.57;;;2.23;;
5171;SDS011;2605;49.770;9.868;2023-05-10T07:19:06;2.40;;;2.10;;
5171;SDS011;2605;49.770;9.868;2023-05-10T07:21:32;2.43;;;2.23;;
5171;SDS011;2605;49.770;9.868;2023-05-10T07:23:57;2.33;;;2.03;;
5171;SDS011;2605;49.770;9.868;2023-05-10T07:26:23;2.50;;;2.20;;
5171;SDS011;2605;49.770;9.868;2023-05-10T07:28:51;4.50;;;2.47;;
5171;SDS011;2605;49.770;9.868;2023-05-10T07:31:16;5.10;;;2.80;;
5171;SDS011;2605;49.770;9.868;2023-05-10T07:33:42;1.90;;;1.80;;
5171;SDS011;2605;49.770;9.868;2023-05-10T07:36:07;4.33;;;2.80;;
5171;SDS011;2605;49.770;9.868;2023-05-10T07:38:33;3.00;;;2.80;;
5171;SDS011;2605;49.770;9.868;2023-05-10T07:40:58;1.80;;;1.60;;
5171;SDS011;2605;49.770;9.868;2023-05-10T07:43:24;2.13;;;1.93;;
5171;SDS011;2605;49.770;9.868;2023-05-10T07:45:49;3.73;;;2.40;;
5171;SDS011;2605;49.770;9.868;2023-05-10T07:48:15;2.90;;;2.20;;
5171;SDS011;2605;49.770;9.868;2023-05-10T07:50:40;1.80;;;1.70;;
5171;SDS011;2605;49.770;9.868;2023-05-10T07:53:06;1.87;;;1.43;;
5171;SDS011;2605;49.770;9.868;2023-05-10T07:55:32;2.30;;;2.20;;
5171;SDS011;2605;49.770;9.868;2023-05-10T07:57:58;2.20;;;1.70;;
5171;SDS011;2605;49.770;9.868;2023-05-10T08:00:26;2.27;;;2.13;;
5171;SDS011;2605;49.770;9.868;2023-05-10T08:02:51;2.30;;;1.63;;
5171;SDS011;2605;49.770;9.868;2023-05-10T08:05:17;2.47;;;2.27;;
5171;SDS011;2605;49.770;9.868;2023-05-10T08:07:43;2.40;;;2.20;;
5171;SDS011;2605;49.770;9.868;2023-05-10T08:10:09;3.57;;;1.50;;
5171;SDS011;2605;49.770;9.868;2023-05-10T08:12:37;7.07;;;1.63;;
5171;SDS011;2605;49.770;9.868;2023-05-10T08:15:03;5.13;;;1.67;;
5171;SDS011;2605;49.770;9.868;2023-05-10T08:17:29;1.90;;;1.80;;
5171;SDS011;2605;49.770;9.868;2023-05-10T08:19:55;7.30;;;2.13;;
5171;SDS011;2605;49.770;9.868;2023-05-10T08:22:23;1.70;;;1.60;;
5171;SDS011;2605;49.770;9.868;2023-05-10T08:24:49;1.47;;;1.37;;
5171;SDS011;2605;49.770;9.868;2023-05-10T08:27:14;2.17;;;1.57;;
5171;SDS011;2605;49.770;9.868;2023-05-10T08:29:40;2.40;;;1.33;;
5171;SDS011;2605;49.770;9.868;2023-05-10T08:32:05;1.50;;;1.40;;
5171;SDS011;2605;49.770;9.868;2023-05-10T08:34:31;1.80;;;1.47;;
5171;SDS011;2605;49.770;9.868;2023-05-10T08:36:56;1.90;;;1.70;;
5171;SDS011;2605;49.770;9.868;2023-05-10T08:39:22;2.60;;;2.23;;
5171;SDS011;2605;49.770;9.868;2023-05-10T08:41:48;4.00;;;1.90;;
5171;SDS011;2605;49.770;9.868;2023-05-10T08:44:16;1.50;;;1.40;;
5171;SDS011;2605;49.770;9.868;2023-05-10T08:46:43;1.73;;;1.63;;
5171;SDS011;2605;49.770;9.868;2023-05-10T08:49:11;2.83;;;1.73;;
5171;SDS011;2605;49.770;9.868;2023-05-10T08:51:42;2.90;;;1.50;;
5171;SDS011;2605;49.770;9.868;2023-05-10T08:54:11;2.53;;;1.63;;
5171;SDS011;2605;49.770;9.868;2023-05-10T08:56:37;2.50;;;2.30;;
5171;SDS011;2605;49.770;9.868;2023-05-10T08:59:03;2.17;;;1.97;;
5171;SDS011;2605;49.770;9.868;2023-05-10T09:01:28;2.37;;;1.57;;
5171;SDS011;2605;49.770;9.868;2023-05-10T09:03:57;8.13;;;2.60;;
5171;SDS011;2605;49.770;9.868;2023-05-10T09:06:23;2.40;;;2.20;;
5171;SDS011;2605;49.770;9.868;2023-05-10T09:08:49;4.50;;;1.80;;
5171;SDS011;2605;49.770;9.868;2023-05-10T09:11:15;6.57;;;2.27;;
5171;SDS011;2605;49.770;9.868;2023-05-10T09:13:41;2.20;;;2.00;;
5171;SDS011;2605;49.770;9.868;2023-05-10T09:16:08;2.23;;;2.13;;
5171;SDS011;2605;49.770;9.868;2023-05-10T09:18:34;1.63;;;1.53;;
5171;SDS011;2605;49.770;9.868;2023-05-10T09:20:59;1.73;;;1.63;;
5171;SDS011;2605;49.770;9.868;2023-05-10T09:23:25;2.03;;;1.93;;
5171;SDS011;2605;49.770;9.868;2023-05-10T09:26:06;2.43;;;2.23;;
5171;SDS011;2605;49.770;9.868;2023-05-10T09:28:32;1.70;;;1.60;;
5171;SDS011;2605;49.770;9.868;2023-05-10T09:31:17;1.70;;;1.60;;
5171;SDS011;2605;49.770;9.868;2023-05-10T09:33:43;2.37;;;1.93;;
5171;SDS011;2605;49.770;9.868;2023-05-10T09:36:10;2.50;;;2.00;;
5171;SDS011;2605;49.770;9.868;2023-05-10T09:38:49;1.90;;;1.80;;
5171;SDS011;2605;49.770;9.868;2023-05-10T09:41:20;4.23;;;1.77;;
5171;SDS011;2605;49.770;9.868;2023-05-10T09:43:47;3.37;;;2.47;;
5171;SDS011;2605;49.770;9.868;2023-05-10T09:46:14;2.00;;;1.90;;
5171;SDS011;2605;49.770;9.868;2023-05-10T09:48:44;4.10;;;2.83;;
5171;SDS011;2605;49.770;9.868;2023-05-10T09:51:21;1.77;;;1.67;;
5171;SDS011;2605;49.770;9.868;2023-05-10T09:54:11;1.57;;;1.47;;
5171;SDS011;2605;49.770;9.868;2023-05-10T09:56:38;1.50;;;1.40;;
5171;SDS011;2605;49.770;9.868;2023-05-10T09:59:05;2.00;;;1.73;;
5171;SDS011;2605;49.770;9.868;2023-05-10T10:01:33;3.03;;;1.70;;
5171;SDS011;2605;49.770;9.868;2023-05-10T10:03:59;1.70;;;1.60;;
5171;SDS011;2605;49.770;9.868;2023-05-10T10:06:28;1.93;;;1.37;;
5171;SDS011;2605;49.770;9.868;2023-05-10T10:08:56;2.07;;;1.87;;
5171;SDS011;2605;49.770;9.868;2023-05-10T10:11:21;2.67;;;1.77;;
5171;SDS011;2605;49.770;9.868;2023-05-10T10:13:48;1.30;;;1.30;;
5171;SDS011;2605;49.770;9.868;2023-05-10T10:16:14;2.20;;;2.10;;
5171;SDS011;2605;49.770;9.868;2023-05-10T10:18:40;1.63;;;1.53;;
5171;SDS011;2605;49.770;9.868;2023-05-10T10:21:07;1.70;;;1.57;;
5171;SDS011;2605;49.770;9.868;2023-05-10T10:23:35;4.30;;;1.80;;
5171;SDS011;2605;49.770;9.868;2023-05-10T10:26:02;3.40;;;1.80;;
5171;SDS011;2605;49.770;9.868;2023-05-10T10:30:54;1.77;;;1.67;;
5171;SDS011;2605;49.770;9.868;2023-05-10T10:36:03;5.23;;;1.40;;
5171;SDS011;2605;49.770;9.868;2023-05-10T10:38:36;3.30;;;1.63;;
5171;SDS011;2605;49.770;9.868;2023-05-10T10:52:26;2.00;;;1.90;;
5171;SDS011;2605;49.770;9.868;2023-05-10T10:57:49;1.70;;;1.60;;
5171;SDS011;2605;49.770;9.868;2023-05-10T11:00:37;1.47;;;1.37;;
5171;SDS011;2605;49.770;9.868;2023-05-10T11:03:06;1.80;;;1.70;;
5171;SDS011;2605;49.770;9.868;2023-05-10T11:05:43;28.23;;;1.90;;
5171;SDS011;2605;49.770;9.868;2023-05-10T11:08:30;1.33;;;1.23;;
5171;SDS011;2605;49.770;9.868;2023-05-10T11:16:23;1.73;;;1.13;;
5171;SDS011;2605;49.770;9.868;2023-05-10T11:18:53;1.33;;;1.23;;
5171;SDS011;2605;49.770;9.868;2023-05-10T11:21:22;3.03;;;1.73;;
5171;SDS011;2605;49.770;9.868;2023-05-10T11:23:54;1.10;;;1.10;;
5171;SDS011;2605;49.770;9.868;2023-05-10T11:26:21;2.17;;;1.50;;
5171;SDS011;2605;49.770;9.868;2023-05-10T11:28:50;1.53;;;1.30;;
5171;SDS011;2605;49.770;9.868;2023-05-10T11:31:17;4.23;;;1.10;;
5171;SDS011;2605;49.770;9.868;2023-05-10T11:33:46;1.57;;;1.47;;
5171;SDS011;2605;49.770;9.868;2023-05-10T11:36:20;1.30;;;1.20;;
5171;SDS011;2605;49.770;9.868;2023-05-10T11:38:47;1.37;;;1.27;;
5171;SDS011;2605;49.770;9.868;2023-05-10T11:41:14;3.47;;;1.40;;
5171;SDS011;2605;49.770;9.868;2023-05-10T11:43:41;5.10;;;1.57;;
5171;SDS011;2605;49.770;9.868;2023-05-10T11:46:07;3.27;;;1.30;;
5171;SDS011;2605;49.770;9.868;2023-05-10T11:48:40;2.70;;;1.50;;
5171;SDS011;2605;49.770;9.868;2023-05-10T11:51:06;1.37;;;1.10;;
5171;SDS011;2605;49.770;9.868;2023-05-10T11:53:32;1.43;;;1.40;;
5171;SDS011;2605;49.770;9.868;2023-05-10T11:56:05;1.67;;;1.57;;
5171;SDS011;2605;49.770;9.868;2023-05-10T11:58:32;1.30;;;1.07;;
5171;SDS011;2605;49.770;9.868;2023-05-10T12:00:59;1.00;;;1.00;;
5171;SDS011;2605;49.770;9.868;2023-05-10T12:03:25;1.20;;;1.10;;
5171;SDS011;2605;49.770;9.868;2023-05-10T12:05:51;3.13;;;1.60;;
5171;SDS011;2605;49.770;9.868;2023-05-10T12:08:20;1.73;;;1.63;;
5171;SDS011;2605;49.770;9.868;2023-05-10T12:10:53;2.03;;;1.40;;
5171;SDS011;2605;49.770;9.868;2023-05-10T12:13:28;1.40;;;1.37;;
5171;SDS011;2605;49.770;9.868;2023-05-10T12:15:54;2.50;;;1.30;;
5171;SDS011;2605;49.770;9.868;2023-05-10T12:18:23;1.40;;;1.40;;
5171;SDS011;2605;49.770;9.868;2023-05-10T12:20:51;2.70;;;1.63;;
5171;SDS011;2605;49.770;9.868;2023-05-10T12:23:17;1.00;;;1.00;;
5171;SDS011;2605;49.770;9.868;2023-05-10T12:25:44;1.67;;;1.30;;
5171;SDS011;2605;49.770;9.868;2023-05-10T12:28:10;1.13;;;1.13;;
5171;SDS011;2605;49.770;9.868;2023-05-10T12:30:36;1.30;;;1.20;;
5171;SDS011;2605;49.770;9.868;2023-05-10T12:33:09;2.57;;;1.37;;
5171;SDS011;2605;49.770;9.868;2023-05-10T12:35:46;1.43;;;1.33;;
5171;SDS011;2605;49.770;9.868;2023-05-10T12:40:54;1.27;;;1.20;;
5171;SDS011;2605;49.770;9.868;2023-05-10T12:43:20;3.63;;;2.30;;
5171;SDS011;2605;49.770;9.868;2023-05-10T12:45:46;2.30;;;2.10;;
5171;SDS011;2605;49.770;9.868;2023-05-10T12:48:13;6.73;;;2.60;;
5171;SDS011;2605;49.770;9.868;2023-05-10T12:50:42;4.00;;;2.87;;
5171;SDS011;2605;49.770;9.868;2023-05-10T12:53:07;2.70;;;2.60;;
5171;SDS011;2605;49.770;9.868;2023-05-10T12:55:33;3.90;;;2.93;;
5171;SDS011;2605;49.770;9.868;2023-05-10T12:57:59;3.20;;;3.03;;
5171;SDS011;2605;49.770;9.868;2023-05-10T13:00:24;6.20;;;3.07;;
5171;SDS011;2605;49.770;9.868;2023-05-10T13:02:50;2.20;;;2.10;;
5171;SDS011;2605;49.770;9.868;2023-05-10T13:05:16;3.23;;;2.93;;
5171;SDS011;2605;49.770;9.868;2023-05-10T13:07:41;3.27;;;3.07;;
5171;SDS011;2605;49.770;9.868;2023-05-10T13:10:08;3.20;;;2.10;;
5171;SDS011;2605;49.770;9.868;2023-05-10T13:12:35;3.97;;;2.80;;
5171;SDS011;2605;49.770;9.868;2023-05-10T13:15:00;2.33;;;2.23;;
5171;SDS011;2605;49.770;9.868;2023-05-10T13:17:27;2.70;;;2.50;;
5171;SDS011;2605;49.770;9.868;2023-05-10T13:19:53;3.90;;;3.60;;
5171;SDS011;2605;49.770;9.868;2023-05-10T13:22:18;4.33;;;3.93;;
5171;SDS011;2605;49.770;9.868;2023-05-10T13:24:44;4.00;;;2.50;;
5171;SDS011;2605;49.770;9.868;2023-05-10T13:27:09;3.53;;;3.23;;
5171;SDS011;2605;49.770;9.868;2023-05-10T13:29:35;7.70;;;2.33;;
5171;SDS011;2605;49.770;9.868;2023-05-10T13:32:00;1.93;;;1.83;;
5171;SDS011;2605;49.770;9.868;2023-05-10T13:34:26;2.90;;;2.70;;
5171;SDS011;2605;49.770;9.868;2023-05-10T13:36:52;3.40;;;2.87;;
5171;SDS011;2605;49.770;9.868;2023-05-10T13:39:18;4.37;;;3.97;;
5171;SDS011;2605;49.770;9.868;2023-05-10T13:41:45;4.37;;;4.07;;
5171;SDS011;2605;49.770;9.868;2023-05-10T13:44:12;2.40;;;1.80;;
5171;SDS011;2605;49.770;9.868;2023-05-10T13:46:38;4.63;;;3.83;;
5171;SDS011;2605;49.770;9.868;2023-05-10T13:49:04;12.13;;;4.33;;
5171;SDS011;2605;49.770;9.868;2023-05-10T13:51:30;4.37;;;3.17;;
5171;SDS011;2605;49.770;9.868;2023-05-10T13:53:56;3.50;;;3.20;;
5171;SDS011;2605;49.770;9.868;2023-05-10T13:56:22;5.67;;;3.67;;
5171;SDS011;2605;49.770;9.868;2023-05-10T13:58:48;2.40;;;2.20;;
5171;SDS011;2605;49.770;9.868;2023-05-10T14:01:13;2.80;;;2.60;;
5171;SDS011;2605;49.770;9.868;2023-05-10T14:03:39;3.53;;;2.97;;
5171;SDS011;2605;49.770;9.868;2023-05-10T14:06:04;3.60;;;3.10;;
5171;SDS011;2605;49.770;9.868;2023-05-10T14:08:32;3.80;;;3.43;;
5171;SDS011;2605;49.770;9.868;2023-05-10T14:10:57;3.03;;;2.27;;
5171;SDS011;2605;49.770;9.868;2023-05-10T14:13:23;4.30;;;3.20;;
5171;SDS011;2605;49.770;9.868;2023-05-10T14:15:49;10.70;;;2.47;;
5171;SDS011;2605;49.770;9.868;2023-05-10T14:18:15;4.73;;;2.90;;
5171;SDS011;2605;49.770;9.868;2023-05-10T14:20:41;3.57;;;3.27;;
5171;SDS011;2605;49.770;9.868;2023-05-10T14:23:06;4.40;;;4.00;;
5171;SDS011;2605;49.770;9.868;2023-05-10T14:25:32;7.40;;;4.07;;
5171;SDS011;2605;49.770;9.868;2023-05-10T14:27:58;4.83;;;4.43;;
5171;SDS011;2605;49.770;9.868;2023-05-10T14:30:23;4.40;;;4.00;;
5171;SDS011;2605;49.770;9.868;2023-05-10T14:32:49;6.80;;;3.37;;
5171;SDS011;2605;49.770;9.868;2023-05-10T14:35:14;4.27;;;3.90;;
5171;SDS011;2605;49.770;9.868;2023-05-10T14:37:40;3.97;;;3.60;;
5171;SDS011;2605;49.770;9.868;2023-05-10T14:40:05;9.70;;;3.80;;
5171;SDS011;2605;49.770;9.868;2023-05-10T14:42:32;4.07;;;3.50;;
5171;SDS011;2605;49.770;9.868;2023-05-10T14:44:57;4.23;;;2.97;;
5171;SDS011;2605;49.770;9.868;2023-05-10T14:47:26;5.50;;;3.67;;
5171;SDS011;2605;49.770;9.868;2023-05-10T14:49:54;6.23;;;4.50;;
5171;SDS011;2605;49.770;9.868;2023-05-10T14:52:20;3.37;;;3.07;;
5171;SDS011;2605;49.770;9.868;2023-05-10T14:54:45;4.17;;;3.77;;
5171;SDS011;2605;49.770;9.868;2023-05-10T14:57:11;4.00;;;3.80;;
5171;SDS011;2605;49.770;9.868;2023-05-10T14:59:36;3.27;;;3.07;;
5171;SDS011;2605;49.770;9.868;2023-05-10T15:02:02;4.30;;;3.90;;
5171;SDS011;2605;49.770;9.868;2023-05-10T15:04:28;3.83;;;3.53;;
5171;SDS011;2605;49.770;9.868;2023-05-10T15:06:53;4.77;;;4.30;;
5171;SDS011;2605;49.770;9.868;2023-05-10T15:09:23;5.37;;;3.30;;
5171;SDS011;2605;49.770;9.868;2023-05-10T15:11:49;3.73;;;3.40;;
5171;SDS011;2605;49.770;9.868;2023-05-10T15:14:15;4.07;;;3.77;;
5171;SDS011;2605;49.770;9.868;2023-05-10T15:16:40;4.23;;;3.83;;
5171;SDS011;2605;49.770;9.868;2023-05-10T15:19:06;4.87;;;3.63;;
5171;SDS011;2605;49.770;9.868;2023-05-10T15:21:31;4.20;;;3.90;;
5171;SDS011;2605;49.770;9.868;2023-05-10T15:24:03;3.20;;;3.00;;
5171;SDS011;2605;49.770;9.868;2023-05-10T15:26:30;4.07;;;3.70;;
5171;SDS011;2605;49.770;9.868;2023-05-10T15:28:55;3.40;;;3.20;;
5171;SDS011;2605;49.770;9.868;2023-05-10T15:31:21;4.23;;;3.80;;
5171;SDS011;2605;49.770;9.868;2023-05-10T15:33:46;4.77;;;3.90;;
5171;SDS011;2605;49.770;9.868;2023-05-10T15:36:12;4.00;;;3.67;;
5171;SDS011;2605;49.770;9.868;2023-05-10T15:38:37;3.00;;;2.80;;
5171;SDS011;2605;49.770;9.868;2023-05-10T15:41:03;3.33;;;3.13;;
5171;SDS011;2605;49.770;9.868;2023-05-10T15:43:28;3.07;;;2.77;;
5171;SDS011;2605;49.770;9.868;2023-05-10T15:45:54;3.63;;;3.33;;
5171;SDS011;2605;49.770;9.868;2023-05-10T15:48:19;4.50;;;2.90;;
5171;SDS011;2605;49.770;9.868;2023-05-10T15:50:48;2.63;;;2.43;;
5171;SDS011;2605;49.770;9.868;2023-05-10T15:53:13;8.03;;;2.43;;
5171;SDS011;2605;49.770;9.868;2023-05-10T15:55:39;4.73;;;2.23;;